Aeroporto :







RITROVATECI SU...

 
LOGIN :

Iscrizione | Disclaimer

   EN    FR    IT 

 









Sommario :    VFR   VFR Marginale   IFR   IFR Intensivo   IFR Molto Intensivo
Visibilità : 
Base nubi : 
>= 8 km
>= 3000ft
5 / 8 km
1000 / 3000 ft
1500m / 5 km
500 / 1000 ft
800 / 1500m
200 / 500 ft
< 800m
< 200 ft
Simboli :   Temporali  Nebbia  Neve Forte  Precipitazioni Forti  Vento > 20 kt






- Altitudine del aeroporto : 215 ft
- Codice IATA : MSS


KMSS - Massena International Richards Field

ULTIMO METAR :
  • 070053Z AUTO 28005KT 10SM CLR M06/M10 A3014 RMK AO2 SLP213 T10561100

METARs OBSOLETI :
  • 062353Z AUTO 28005KT 10SM BKN034 M05/M09 A3011 RMK AO2 SLP203 60000 T10501089 11033 21056 51035
  • 062253Z AUTO 29006KT 10SM CLR M05/M09 A3009 RMK AO2 SLP195 T10501089

TAF KMSS
Valido dal 07 a 00 ore il 08 a 00 ore UTC


062349Z 0700/0724 31005KT P6SM SKC
FM070400 VRB03KT P6SM BKN040
FM071400 26005KT P6SM BKN050
FM072100 25007KT P6SM BKN120



MetMap, La meteo Aeronautica in un colpo d'occhio ! - Copyright ORBIFLY Dicembre 2007 - Disclaimer

ORBIFLY MET'MAP TEAM :

Programmazione e sviluppo : Alexandra Zaïnal
Concezione : Baudouin d'Aumeries
Aiuto per la programmazione : Marc-Olivier Méhu
Supporto tecnico e logistico : Manuel Goepfert
Aiuto per la traduzione : Arnaldo La Scala

Contatto : metmap@orbifly.com




FONTI E CREDITI :

   NOAA